This is the latest recevied weather packets stored in our database for station/object KG6LPP. If no packets are shown the sender has not sent any weather packets the latest 10 day(s).
| Time | Temp. | Humidity | Pressure | Rain* | Wind** | Luminosity | Snow |
|---|---|---|---|---|---|---|---|
| 1778208313 | 11.67° C | 25% | 1009.1 hPa | 0 mm | - | 0 W/m² | - |
| 1778207413 | 12.78° C | 23% | 1008.9 hPa | 0 mm | - | 0 W/m² | - |
| 1778205661 | 13.89° C | 21% | 1008.5 hPa | 0 mm | - | 0 W/m² | - |
| 1778203858 | 17.22° C | 17% | 1008.3 hPa | 0 mm | - | 7 W/m² | - |
| 1778200248 | 20° C | 13% | 1008.6 hPa | 0 mm | - | 37 W/m² | - |
| 1778180402 | 17.78° C | 27% | 1012.5 hPa | 0 mm | - | 378 W/m² | - |
| 1778170561 | 11.67° C | 39% | 1014.8 hPa | 0 mm | - | 200 W/m² | - |
| 1778163354 | 6.67° C | 53% | 1015.2 hPa | 0 mm | - | 37 W/m² | - |
| 1778162448 | 5.56° C | 61% | 1015.1 hPa | 0 mm | - | 32 W/m² | - |
| 1778161549 | 3.89° C | 71% | 1015.2 hPa | 0 mm | - | 26 W/m² | - |
| 1778154345 | -1.67° C | 91% | 1015.1 hPa | 0 mm | - | 0 W/m² | - |
| 1778152548 | -1.67° C | 90% | 1015 hPa | 0 mm | - | 0 W/m² | - |
| 1778133658 | 5° C | 51% | 1013.3 hPa | 0 mm | - | 0 W/m² | - |
| 1778125537 | 8.89° C | 55% | 1011.6 hPa | 0 mm | - | 0 W/m² | - |
| 1778117434 | 10° C | 57% | 1009.5 hPa | 0.25 mm | - | 16 W/m² | - |
| 1778109306 | 12.78° C | 48% | 1007.2 hPa | 0 mm | - | 67 W/m² | - |
| 1778105759 | 16.67° C | 29% | 1006.3 hPa | 0 mm | - | 90 W/m² | - |
| 1778103956 | 17.78° C | 29% | 1006.6 hPa | 0 mm | - | 137 W/m² | - |
| 1778098542 | 16.67° C | 34% | 1006.9 hPa | 0 mm | - | 315 W/m² | - |
| 1778096738 | 15.56° C | 38% | 1007 hPa | 0 mm | - | 144 W/m² | - |
| 1778092232 | 13.33° C | 40% | 1007.8 hPa | 0 mm | - | 780 W/m² | - |
| 1778091335 | 13.89° C | 38% | 1008 hPa | 0 mm | - | 1004 W/m² | - |
| 1778084135 | 10° C | 55% | 1008.3 hPa | 0 mm | - | 139 W/m² | - |
| 1778078717 | 6.11° C | 67% | 1008.3 hPa | 0 mm | - | 47 W/m² | - |
| 1778074216 | 4.44° C | 75% | 1008 hPa | 0 mm | - | 65 W/m² | - |
* Rain latest hour (hover to see other rain measurements)
** Current wind speed in m/s (hover to see current wind gust speed)